Time;durP1;ratioP1;P1;durP2;ratioP2;P2;SDS_P1;SDS_P2;PMS_P1;PMS_P2;Temp;Humidity;BMP_temperature;BMP_pressure;BME280_temperature;BME280_humidity;BME280_pressure;Samples;Min_cycle;Max_cycle;Signal;HPM_P1;HPM_P2
2021/07/28 00:00:36;;;;;;;31.35;15.88;;;;;;;14.91;100.00;100899.63;5076994;28;20029;-65
2021/07/28 00:03:02;;;;;;;30.58;15.98;;;;;;;14.87;100.00;100903.22;5076305;28;20024;-65
2021/07/28 00:05:27;;;;;;;30.75;14.88;;;;;;;14.86;100.00;100897.94;5077110;28;20081;-62
2021/07/28 00:07:52;;;;;;;30.08;15.10;;;;;;;14.82;100.00;100895.31;5078408;28;20093;-62
2021/07/28 00:10:18;;;;;;;30.60;15.23;;;;;;;14.83;100.00;100888.19;5079496;28;20517;-62
2021/07/28 00:12:43;;;;;;;30.98;15.07;;;;;;;14.82;100.00;100891.75;5079402;28;20025;-62
2021/07/28 00:15:09;;;;;;;30.60;15.13;;;;;;;14.77;100.00;100890.94;5077496;28;20028;-61
2021/07/28 00:17:38;;;;;;;29.13;14.55;;;;;;;14.74;100.00;100883.00;5075390;28;20020;-61
2021/07/28 00:20:12;;;;;;;28.65;14.02;;;;;;;14.77;100.00;100885.63;5075598;28;20099;-61
2021/07/28 00:25:22;;;;;;;30.30;14.68;;;;;;;14.66;100.00;100877.75;5075483;28;20035;-61
2021/07/28 00:27:49;;;;;;;30.08;14.70;;;;;;;14.63;100.00;100878.69;5075410;28;20028;-61
2021/07/28 00:30:16;;;;;;;29.63;15.13;;;;;;;14.61;100.00;100879.56;5074994;28;20036;-61
2021/07/28 00:32:41;;;;;;;29.45;14.07;;;;;;;14.64;100.00;100876.91;5074997;28;20028;-61
2021/07/28 00:35:07;;;;;;;30.58;14.80;;;;;;;14.58;100.00;100869.84;5075017;28;20070;-61
2021/07/28 00:37:32;;;;;;;30.80;14.75;;;;;;;14.54;100.00;100867.25;5075041;28;20463;-61
2021/07/28 00:39:58;;;;;;;29.00;14.82;;;;;;;14.54;100.00;100859.25;5075019;28;20028;-61
2021/07/28 00:42:23;;;;;;;27.88;13.77;;;;;;;14.51;100.00;100862.81;5074303;28;20016;-61
2021/07/28 00:44:48;;;;;;;29.08;13.43;;;;;;;14.53;100.00;100865.47;5075143;28;20078;-61
2021/07/28 00:47:14;;;;;;;30.95;14.60;;;;;;;14.53;100.00;100861.03;5075273;28;20027;-61
2021/07/28 00:49:41;;;;;;;30.25;14.40;;;;;;;14.55;100.00;100859.25;5074876;28;20356;-61
2021/07/28 00:52:06;;;;;;;29.00;13.20;;;;;;;14.53;100.00;100855.69;5074550;28;20532;-61
2021/07/28 00:54:32;;;;;;;30.00;14.23;;;;;;;14.50;100.00;100845.09;5074961;28;20036;-61
2021/07/28 00:56:58;;;;;;;31.58;14.45;;;;;;;14.55;100.00;100858.38;5074580;28;20408;-61
2021/07/28 00:59:24;;;;;;;29.27;13.45;;;;;;;14.57;100.00;100856.56;5074653;28;20070;-61
2021/07/28 01:01:52;;;;;;;30.58;14.63;;;;;;;14.58;100.00;100853.00;5074727;28;20028;-61
2021/07/28 01:04:18;;;;;;;29.55;13.88;;;;;;;14.57;100.00;100841.47;5074323;28;20031;-61
2021/07/28 01:06:43;;;;;;;30.98;15.00;;;;;;;14.60;100.00;100843.22;5074684;28;20021;-61
2021/07/28 01:09:08;;;;;;;29.50;14.20;;;;;;;14.60;100.00;100838.78;5074855;28;20094;-61
2021/07/28 01:11:36;;;;;;;29.88;13.88;;;;;;;14.54;100.00;100844.16;5074296;28;20037;-61
2021/07/28 01:14:04;;;;;;;30.98;14.77;;;;;;;14.53;100.00;100844.19;5074207;28;20032;-61
2021/07/28 01:16:31;;;;;;;30.55;14.05;;;;;;;14.48;100.00;100836.28;5074701;28;20103;-61
2021/07/28 01:18:59;;;;;;;31.17;14.55;;;;;;;14.47;100.00;100832.75;5070187;28;20035;-61
2021/07/28 01:21:25;;;;;;;30.55;14.27;;;;;;;14.48;100.00;100844.25;5074384;28;20029;-61
2021/07/28 01:23:52;;;;;;;30.30;14.63;;;;;;;14.47;100.00;100835.41;5074270;28;20078;-60
2021/07/28 01:26:18;;;;;;;29.92;14.15;;;;;;;14.48;100.00;100836.28;5074148;28;20039;-61
2021/07/28 01:28:43;;;;;;;31.67;15.27;;;;;;;14.45;100.00;100831.00;5073984;28;20139;-61
2021/07/28 01:31:13;;;;;;;30.08;14.48;;;;;;;14.42;100.00;100825.72;5074261;28;20036;-68
2021/07/28 01:33:41;;;;;;;29.55;13.40;;;;;;;14.42;100.00;100828.38;5074502;28;20391;-64
2021/07/28 01:36:10;;;;;;;31.85;15.00;;;;;;;14.44;100.00;100823.91;5074540;28;20028;-66
2021/07/28 01:38:35;;;;;;;31.45;14.95;;;;;;;14.41;100.00;100819.50;5074791;28;20032;-69
2021/07/28 01:41:03;;;;;;;31.13;14.98;;;;;;;14.37;100.00;100823.13;5073800;28;20036;-66
2021/07/28 01:43:30;;;;;;;31.33;15.43;;;;;;;14.33;100.00;100824.03;5069865;28;20463;-75
2021/07/28 01:45:56;;;;;;;31.48;15.27;;;;;;;14.33;100.00;100816.06;5073871;28;20033;-70
2021/07/28 01:48:22;;;;;;;29.30;14.52;;;;;;;14.29;100.00;100820.53;5073733;28;20036;-71
2021/07/28 01:50:48;;;;;;;32.03;15.25;;;;;;;14.27;100.00;100834.72;5073676;28;20033;-69
2021/07/28 01:53:15;;;;;;;31.08;14.80;;;;;;;14.25;100.00;100829.44;5072887;28;20027;-75
2021/07/28 01:55:42;;;;;;;32.38;16.08;;;;;;;14.22;100.00;100824.16;5073728;28;20029;-71
2021/07/28 01:58:08;;;;;;;31.70;15.15;;;;;;;14.23;100.00;100820.59;5073171;28;20036;-64
2021/07/28 02:00:33;;;;;;;32.40;15.98;;;;;;;14.26;100.00;100823.22;5073425;28;20032;-66
2021/07/28 02:03:04;;;;;;;32.08;15.40;;;;;;;14.24;100.00;100827.69;5073344;28;20021;-72
2021/07/28 02:05:30;;;;;;;34.63;17.42;;;;;;;14.23;100.00;100820.59;5069790;28;20421;-69
2021/07/28 02:08:01;;;;;;;34.33;17.20;;;;;;;14.25;100.00;100826.75;5073677;28;20028;-67
2021/07/28 02:10:27;;;;;;;36.13;18.50;;;;;;;14.35;100.00;100818.72;5069281;28;20028;-65
2021/07/28 02:12:52;;;;;;;36.05;18.55;;;;;;;14.41;100.00;100824.81;5072953;28;20158;-65
2021/07/28 02:15:18;;;;;;;36.10;18.30;;;;;;;14.37;100.00;100812.47;5072973;28;20111;-65
2021/07/28 02:17:43;;;;;;;37.33;18.95;;;;;;;14.36;100.00;100820.44;5073502;28;20032;-61
2021/07/28 02:20:09;;;;;;;36.70;19.35;;;;;;;14.33;100.00;100817.81;5073079;28;20031;-61
2021/07/28 02:22:34;;;;;;;41.30;20.55;;;;;;;14.33;100.00;100815.16;5073444;28;20107;-61
2021/07/28 02:24:59;;;;;;;39.65;20.80;;;;;;;14.29;100.00;100814.34;5072890;28;20463;-61
2021/07/28 02:27:25;;;;;;;41.72;21.77;;;;;;;14.25;100.00;100807.28;5072930;28;20025;-62
2021/07/28 02:29:50;;;;;;;38.95;21.80;;;;;;;14.20;100.00;100799.38;5073008;28;20020;-61
2021/07/28 02:32:15;;;;;;;40.60;22.35;;;;;;;14.19;100.00;100808.22;5072807;28;20036;-61
2021/07/28 02:34:40;;;;;;;42.22;23.25;;;;;;;14.18;100.00;100808.25;5072586;28;20016;-61
2021/07/28 02:37:06;;;;;;;42.35;22.23;;;;;;;14.17;100.00;100799.41;5072920;28;20035;-61
2021/07/28 02:39:31;;;;;;;42.58;22.15;;;;;;;14.16;100.00;100800.28;5073056;28;20028;-61
2021/07/28 02:41:56;;;;;;;41.95;23.55;;;;;;;14.11;100.00;100804.75;5079044;28;20112;-61
2021/07/28 02:44:22;;;;;;;41.05;22.60;;;;;;;14.11;100.00;100799.44;5093595;28;20041;-61
2021/07/28 02:46:47;;;;;;;41.42;22.30;;;;;;;14.08;100.00;100799.50;5092778;28;20032;-61
2021/07/28 02:49:12;;;;;;;40.13;22.60;;;;;;;14.09;100.00;100806.56;5083767;28;20055;-62
2021/07/28 02:51:38;;;;;;;39.38;20.98;;;;;;;14.08;100.00;100802.16;5073238;28;20584;-62
2021/07/28 02:54:03;;;;;;;39.15;21.10;;;;;;;14.06;100.00;100803.94;5072897;28;20035;-61
2021/07/28 02:56:28;;;;;;;38.85;20.52;;;;;;;14.07;100.00;100808.38;5073009;28;20032;-62
2021/07/28 02:58:54;;;;;;;37.25;19.77;;;;;;;14.12;100.00;100810.09;5072376;28;20414;-61
2021/07/28 03:01:19;;;;;;;36.20;20.08;;;;;;;14.17;100.00;100804.72;5072467;28;20021;-62
2021/07/28 03:03:44;;;;;;;36.17;19.33;;;;;;;14.28;100.00;100808.16;5072331;28;20382;-62
2021/07/28 03:06:10;;;;;;;35.60;18.48;;;;;;;14.36;100.00;100799.16;5072633;28;20485;-62
2021/07/28 03:08:35;;;;;;;35.00;17.90;;;;;;;14.42;100.00;100807.09;5072640;28;20024;-63
2021/07/28 03:11:00;;;;;;;33.45;17.25;;;;;;;14.51;100.00;100814.09;5072639;28;20028;-62
2021/07/28 03:13:25;;;;;;;34.30;17.35;;;;;;;14.54;100.00;100809.59;5072476;28;20028;-62
2021/07/28 03:15:51;;;;;;;33.42;17.65;;;;;;;14.61;100.00;100811.31;5070627;28;20520;-62
2021/07/28 03:18:17;;;;;;;34.22;17.40;;;;;;;14.66;100.00;100802.41;5072596;28;20032;-64
2021/07/28 03:20:46;;;;;;;33.67;17.65;;;;;;;14.68;100.00;100805.91;5072299;28;20037;-62
2021/07/28 03:23:11;;;;;;;34.22;16.75;;;;;;;14.70;100.00;100806.78;5072534;28;20047;-64
2021/07/28 03:25:37;;;;;;;32.78;17.10;;;;;;;14.74;100.00;100800.53;5072785;28;20459;-62
2021/07/28 03:28:02;;;;;;;32.60;16.52;;;;;;;14.78;100.00;100812.84;5072208;28;20031;-62
2021/07/28 03:30:28;;;;;;;36.45;17.25;;;;;;;14.80;100.00;100801.31;5068171;28;20028;-63
2021/07/28 03:32:53;;;;;;;33.17;17.38;;;;;;;14.86;100.00;100808.31;5072450;28;20020;-62
2021/07/28 03:35:18;;;;;;;34.58;17.75;;;;;;;14.90;100.00;100804.72;5072124;28;20478;-64
2021/07/28 03:37:44;;;;;;;34.17;17.52;;;;;;;14.93;100.00;100806.47;5072458;28;20064;-62
2021/07/28 03:40:10;;;;;;;34.95;18.38;;;;;;;14.97;100.00;100810.84;5072131;28;20026;-64
2021/07/28 03:42:35;;;;;;;34.33;17.95;;;;;;;14.98;100.00;100804.59;5072356;28;20060;-62
2021/07/28 03:45:00;;;;;;;35.30;18.20;;;;;;;15.03;100.00;100807.19;5072402;28;20450;-62
2021/07/28 03:47:26;;;;;;;35.20;18.13;;;;;;;15.03;100.00;100807.19;5072054;28;20494;-62
2021/07/28 03:49:52;;;;;;;36.88;18.83;;;;;;;15.05;100.00;100806.28;5072317;28;20344;-63
2021/07/28 03:52:18;;;;;;;34.65;18.98;;;;;;;15.10;100.00;100814.19;5072099;28;20081;-62
2021/07/28 03:54:43;;;;;;;36.33;19.10;;;;;;;15.10;100.00;100811.53;5072001;28;20107;-62
2021/07/28 03:57:10;;;;;;;37.03;18.95;;;;;;;15.14;100.00;100807.91;5071722;28;20039;-62
2021/07/28 03:59:35;;;;;;;36.13;19.30;;;;;;;15.18;100.00;100804.31;5072211;28;20028;-62
2021/07/28 04:02:01;;;;;;;36.35;19.42;;;;;;;15.19;100.00;100807.84;5071945;28;20020;-62
2021/07/28 04:04:26;;;;;;;36.33;19.80;;;;;;;15.22;100.00;100798.03;5071956;28;20028;-61
2021/07/28 04:06:51;;;;;;;36.00;19.10;;;;;;;15.22;100.00;100802.47;5072141;28;20052;-62
2021/07/28 04:09:16;;;;;;;34.97;19.15;;;;;;;15.24;100.00;100804.22;5072041;28;20109;-62
2021/07/28 04:11:42;;;;;;;37.78;19.90;;;;;;;15.24;100.00;100801.53;5072018;28;20024;-62
2021/07/28 04:14:07;;;;;;;35.63;19.20;;;;;;;15.27;100.00;100803.28;5072108;28;20024;-62
2021/07/28 04:16:32;;;;;;;36.85;19.85;;;;;;;15.27;100.00;100798.81;5087834;28;20036;-63
2021/07/28 04:18:58;;;;;;;37.80;19.17;;;;;;;15.30;100.00;100793.50;5087498;28;20024;-61
2021/07/28 04:21:23;;;;;;;37.25;19.05;;;;;;;15.32;100.00;100799.66;5075404;28;20044;-62
2021/07/28 04:23:48;;;;;;;37.80;19.55;;;;;;;15.33;100.00;100796.09;5075393;28;20028;-62
2021/07/28 04:26:14;;;;;;;35.60;19.40;;;;;;;15.36;100.00;100795.13;5075588;28;20035;-61
2021/07/28 04:28:39;;;;;;;38.08;19.63;;;;;;;15.35;100.00;100790.75;5075373;28;20375;-62
2021/07/28 04:31:04;;;;;;;35.30;19.83;;;;;;;15.37;100.00;100796.91;5075211;28;20467;-74
2021/07/28 04:33:30;;;;;;;37.75;20.65;;;;;;;15.40;100.00;100796.84;5075263;28;20379;-67
2021/07/28 04:35:55;;;;;;;39.03;21.52;;;;;;;15.44;100.00;100798.56;5074950;28;20016;-76
2021/07/28 04:38:20;;;;;;;39.30;22.00;;;;;;;15.44;100.00;100798.56;5075277;28;20020;-76
2021/07/28 04:40:46;;;;;;;38.13;21.60;;;;;;;15.47;100.00;100802.97;5075085;28;20027;-70
2021/07/28 04:43:11;;;;;;;38.97;22.10;;;;;;;15.49;100.00;100798.50;5075151;28;20520;-66
2021/07/28 04:45:36;;;;;;;36.67;20.63;;;;;;;15.50;100.00;100795.78;5075429;28;20116;-68
2021/07/28 04:48:04;;;;;;;37.30;21.88;;;;;;;15.54;100.00;100799.31;5074933;28;20013;-68
2021/07/28 04:50:29;;;;;;;40.03;21.95;;;;;;;15.59;100.00;100793.88;5070702;28;20025;-71
2021/07/28 04:52:54;;;;;;;38.22;21.20;;;;;;;15.62;100.00;100794.69;5074990;28;20024;-76
2021/07/28 04:55:20;;;;;;;42.83;22.55;;;;;;;15.66;100.00;100807.06;5074494;28;20029;-65
2021/07/28 04:57:45;;;;;;;39.38;21.23;;;;;;;15.67;100.00;100803.50;5074526;28;20043;-67
2021/07/28 05:00:11;;;;;;;39.80;23.13;;;;;;;15.69;100.00;100799.03;5074940;28;20035;-70
2021/07/28 05:02:36;;;;;;;39.00;21.73;;;;;;;15.74;100.00;100806.06;5074440;28;20020;-67
2021/07/28 05:05:03;;;;;;;37.47;20.83;;;;;;;15.73;100.00;100799.88;5074856;28;20024;-66
2021/07/28 05:07:29;;;;;;;39.25;21.77;;;;;;;15.76;100.00;100804.25;5071537;28;20069;-66
2021/07/28 05:09:54;;;;;;;38.65;21.92;;;;;;;15.78;100.00;100802.44;5077559;28;20438;-72
2021/07/28 05:12:19;;;;;;;38.42;21.45;;;;;;;15.79;100.00;100806.91;5077082;28;20028;-73
2021/07/28 05:14:45;;;;;;;35.47;21.25;;;;;;;15.81;100.00;100810.41;5079689;28;20032;-61
2021/07/28 05:17:10;;;;;;;39.47;21.42;;;;;;;15.75;100.00;100797.16;5077499;28;20026;-62
2021/07/28 05:19:35;;;;;;;39.30;22.27;;;;;;;15.73;100.00;100801.63;5074702;28;20063;-62
2021/07/28 05:22:00;;;;;;;40.00;22.52;;;;;;;15.66;100.00;100800.88;5077694;28;20089;-61
2021/07/28 05:24:26;;;;;;;40.28;22.17;;;;;;;15.62;100.00;100799.16;5077407;28;20127;-61
2021/07/28 05:26:51;;;;;;;40.83;23.80;;;;;;;15.56;100.00;100808.13;5077265;28;20017;-62
2021/07/28 05:29:16;;;;;;;39.90;23.25;;;;;;;15.54;100.00;100815.28;5077669;28;20032;-61
2021/07/28 05:31:42;;;;;;;39.70;24.25;;;;;;;15.53;100.00;100810.84;5075789;28;20055;-61
2021/07/28 05:34:07;;;;;;;41.83;24.85;;;;;;;15.54;100.00;100804.63;5075200;28;20032;-61
2021/07/28 05:36:32;;;;;;;39.78;22.98;;;;;;;15.57;100.00;100809.91;5077057;28;20056;-62
2021/07/28 05:38:58;;;;;;;41.25;23.15;;;;;;;15.62;100.00;100805.34;5075260;28;20029;-63
2021/07/28 05:41:23;;;;;;;40.28;22.90;;;;;;;15.69;100.00;100814.13;5079492;28;20047;-67
2021/07/28 05:43:48;;;;;;;38.92;22.73;;;;;;;15.82;100.00;100812.19;5077112;28;20028;-67
2021/07/28 05:46:14;;;;;;;38.72;21.38;;;;;;;15.94;100.00;100819.94;5080038;28;20024;-65
2021/07/28 05:48:39;;;;;;;36.25;21.02;;;;;;;16.00;100.00;100811.84;5076448;28;20047;-62
2021/07/28 05:51:04;;;;;;;35.83;21.02;;;;;;;16.09;100.00;100810.78;5077695;28;20438;-66
2021/07/28 05:53:30;;;;;;;35.85;19.80;;;;;;;16.17;100.00;100821.31;5077601;28;20523;-66
2021/07/28 05:55:55;;;;;;;33.80;19.30;;;;;;;16.24;100.00;100809.63;5080558;28;20064;-64
2021/07/28 05:58:21;;;;;;;37.50;20.38;;;;;;;16.34;100.00;100815.66;5075811;28;20059;-64
2021/07/28 06:00:48;;;;;;;36.22;19.77;;;;;;;16.43;100.00;100809.25;5078721;28;20051;-63
2021/07/28 06:03:13;;;;;;;33.10;19.05;;;;;;;16.47;100.00;100813.59;5075667;28;20024;-63
2021/07/28 06:05:38;;;;;;;32.78;18.20;;;;;;;16.54;100.00;100832.13;5076715;28;20073;-63
2021/07/28 06:08:04;;;;;;;33.05;17.65;;;;;;;16.55;100.00;100822.31;5079390;28;20068;-63
2021/07/28 06:10:29;;;;;;;32.90;18.63;;;;;;;16.54;100.00;100821.47;5070941;28;20456;-63
2021/07/28 06:12:55;;;;;;;33.70;18.50;;;;;;;16.60;100.00;100816.88;5067059;28;20149;-64
2021/07/28 06:15:20;;;;;;;32.92;18.38;;;;;;;16.61;100.00;100814.19;5070152;28;20375;-63
2021/07/28 06:17:45;;;;;;;32.47;17.88;;;;;;;16.63;100.00;100823.06;5069180;28;20463;-64
2021/07/28 06:20:11;;;;;;;31.40;17.30;;;;;;;16.65;100.00;100815.00;5067055;28;20531;-64
2021/07/28 06:22:37;;;;;;;35.00;17.65;;;;;;;16.65;100.00;100815.88;5067315;28;20016;-64
2021/07/28 06:25:02;;;;;;;30.80;17.20;;;;;;;16.63;100.00;100819.50;5067373;28;20016;-65
2021/07/28 06:27:28;;;;;;;31.75;17.63;;;;;;;16.58;100.00;100824.94;5061224;28;20115;-64
2021/07/28 06:29:53;;;;;;;32.92;17.30;;;;;;;16.58;100.00;100827.59;5066465;28;20107;-63
2021/07/28 06:32:18;;;;;;;32.05;17.05;;;;;;;16.59;100.00;100834.69;5069575;28;20041;-63
2021/07/28 06:34:44;;;;;;;31.42;17.20;;;;;;;16.78;100.00;100826.31;5069539;28;20047;-63
2021/07/28 06:37:09;;;;;;;30.52;16.45;;;;;;;16.88;100.00;100841.25;5070423;28;20366;-63
2021/07/28 06:39:35;;;;;;;38.17;16.48;;;;;;;16.96;100.00;100833.06;5067763;28;20073;-63
2021/07/28 06:42:00;;;;;;;31.35;15.68;;;;;;;16.96;98.30;100839.25;5069581;28;20028;-62
2021/07/28 06:44:26;;;;;;;29.83;15.35;;;;;;;16.98;98.97;100828.56;5073720;28;20048;-62
2021/07/28 06:46:51;;;;;;;30.63;15.38;;;;;;;16.99;98.28;100827.66;5071816;28;20020;-62
2021/07/28 06:49:16;;;;;;;30.40;15.05;;;;;;;17.11;94.98;100827.38;5065320;28;20044;-62
2021/07/28 06:51:42;;;;;;;27.40;14.10;;;;;;;17.14;93.68;100837.09;5068881;28;20050;-62
2021/07/28 06:54:07;;;;;;;26.70;12.85;;;;;;;17.15;91.31;100833.50;5071242;28;20060;-62
2021/07/28 06:56:32;;;;;;;28.13;12.13;;;;;;;17.12;89.28;100836.25;5071086;28;20048;-62
2021/07/28 06:58:58;;;;;;;27.17;11.20;;;;;;;16.97;86.47;100833.03;5073576;28;20187;-62
2021/07/28 07:01:23;;;;;;;26.23;10.90;;;;;;;16.92;87.67;100845.63;5068459;28;20047;-62
2021/07/28 07:03:48;;;;;;;26.95;12.05;;;;;;;16.91;87.80;100835.84;5071018;28;20462;-72
2021/07/28 07:06:13;;;;;;;27.45;11.52;;;;;;;16.95;89.42;100834.88;5063865;28;20035;-62
2021/07/28 07:08:39;;;;;;;25.52;11.38;;;;;;;17.04;88.02;100831.97;5069540;28;20028;-62
2021/07/28 07:11:04;;;;;;;25.70;11.57;;;;;;;17.13;87.87;100828.22;5073196;28;20036;-66
2021/07/28 07:13:29;;;;;;;23.38;10.27;;;;;;;17.23;86.14;100831.56;5069528;28;20060;-65
2021/07/28 07:15:55;;;;;;;26.60;10.15;;;;;;;17.28;84.55;100826.09;5070660;28;20033;-64
2021/07/28 07:18:20;;;;;;;24.60;10.63;;;;;;;17.32;83.98;100822.44;5069164;28;20442;-62
2021/07/28 07:20:45;;;;;;;24.35;11.02;;;;;;;17.45;84.58;100823.03;5075732;28;20455;-64
2021/07/28 07:23:12;;;;;;;24.40;10.18;;;;;;;17.52;81.31;100828.19;5072969;28;20024;-64
2021/07/28 07:25:37;;;;;;;23.30;9.50;;;;;;;17.47;79.83;100819.38;5074721;28;20017;-64
2021/07/28 07:28:03;;;;;;;24.33;9.82;;;;;;;17.53;80.01;100818.34;5071696;28;20030;-62
2021/07/28 07:30:28;;;;;;;22.60;9.30;;;;;;;17.60;79.05;100833.31;5072150;28;20111;-64
2021/07/28 07:35:37;;;;;;;22.45;8.70;;;;;;;17.77;77.23;100839.13;5076734;28;20491;-64
2021/07/28 07:38:02;;;;;;;21.60;8.32;;;;;;;17.93;76.85;100826.25;5077083;28;20024;-64
2021/07/28 07:40:28;;;;;;;21.30;8.15;;;;;;;17.99;72.86;100840.41;5075159;28;20043;-63
2021/07/28 07:42:53;;;;;;;21.42;7.55;;;;;;;18.08;74.85;100846.38;5071689;28;20021;-63
2021/07/28 07:45:18;;;;;;;21.55;7.97;;;;;;;18.08;73.07;100832.13;5077298;28;20031;-63
2021/07/28 07:47:44;;;;;;;22.08;8.18;;;;;;;18.10;73.17;100839.19;5078533;28;20060;-63
2021/07/28 07:50:10;;;;;;;23.05;8.32;;;;;;;18.21;72.49;100827.31;5078629;28;20027;-63
2021/07/28 07:52:36;;;;;;;22.58;7.93;;;;;;;18.31;71.29;100833.31;5082005;28;20040;-64
2021/07/28 07:55:02;;;;;;;23.00;8.63;;;;;;;18.23;72.36;100830.81;5080642;28;20028;-63
2021/07/28 07:57:27;;;;;;;21.48;7.75;;;;;;;18.34;71.58;100823.38;5078283;28;20051;-63
2021/07/28 07:59:53;;;;;;;21.88;7.93;;;;;;;18.25;72.04;100834.34;5080016;28;20021;-63
2021/07/28 08:02:18;;;;;;;23.60;8.23;;;;;;;18.20;72.94;100830.91;5079276;28;20023;-63
2021/07/28 08:04:43;;;;;;;23.33;8.15;;;;;;;18.20;72.39;100833.59;5081136;28;20028;-63
2021/07/28 08:07:09;;;;;;;20.95;8.00;;;;;;;18.37;72.41;100825.97;5079570;28;20020;-63
2021/07/28 08:09:34;;;;;;;23.35;8.30;;;;;;;18.63;70.85;100816.31;5078080;28;20032;-62
2021/07/28 08:11:59;;;;;;;20.90;7.80;;;;;;;18.93;71.10;100821.69;5079217;28;20085;-62
2021/07/28 08:14:25;;;;;;;22.55;8.20;;;;;;;19.08;69.30;100823.91;5081114;28;20033;-63
2021/07/28 08:16:50;;;;;;;23.13;8.25;;;;;;;19.10;68.55;100824.72;5076599;28;20029;-63
2021/07/28 08:19:15;;;;;;;22.40;8.23;;;;;;;18.80;69.00;100816.69;5074715;28;20020;-63
2021/07/28 08:21:41;;;;;;;23.00;7.55;;;;;;;18.66;68.85;100818.91;5075187;28;20020;-63
2021/07/28 08:24:06;;;;;;;21.20;7.32;;;;;;;18.61;69.06;100818.13;5074868;28;20074;-64
2021/07/28 08:26:32;;;;;;;21.58;7.57;;;;;;;18.62;68.47;100817.22;5075285;28;20107;-64
2021/07/28 08:28:57;;;;;;;20.73;7.13;;;;;;;18.91;68.30;100827.09;5075395;28;20364;-63
2021/07/28 08:31:22;;;;;;;22.25;8.00;;;;;;;19.02;67.84;100825.88;5075338;28;20508;-64
2021/07/28 08:33:48;;;;;;;21.42;7.18;;;;;;;18.95;67.90;100830.56;5075226;28;20017;-63
2021/07/28 08:36:13;;;;;;;21.38;7.47;;;;;;;19.08;66.43;100837.28;5075604;28;20021;-63
2021/07/28 08:38:38;;;;;;;22.23;7.40;;;;;;;19.24;68.61;100826.09;5075454;28;20036;-64
2021/07/28 08:41:04;;;;;;;23.35;7.40;;;;;;;19.47;67.50;100836.94;5075218;28;20025;-64
2021/07/28 08:43:38;;;;;;;22.27;7.50;;;;;;;19.54;66.48;100831.38;5074956;28;20052;-63
2021/07/28 08:46:06;;;;;;;22.35;8.10;;;;;;;19.39;64.92;100838.13;5075235;28;20032;-62
2021/07/28 08:48:33;;;;;;;20.70;7.30;;;;;;;19.43;66.49;100818.34;5074388;28;20020;-62
2021/07/28 08:51:00;;;;;;;21.33;6.90;;;;;;;19.50;65.81;100818.06;5075753;28;20446;-62
2021/07/28 08:53:26;;;;;;;21.90;6.63;;;;;;;19.59;63.86;100824.06;5075333;28;20518;-62
2021/07/28 08:55:53;;;;;;;19.48;6.22;;;;;;;19.70;63.42;100824.56;5080731;28;20028;-62
2021/07/28 08:58:21;;;;;;;20.35;5.95;;;;;;;19.80;64.37;100809.94;5095780;28;20099;-61
2021/07/28 09:00:48;;;;;;;21.17;6.60;;;;;;;20.06;63.13;100839.50;5075029;28;20076;-62
2021/07/28 09:03:14;;;;;;;20.80;6.45;;;;;;;20.05;62.66;100806.38;5073789;28;20031;-62
2021/07/28 09:05:43;;;;;;;19.17;5.95;;;;;;;20.13;62.21;100823.09;5074783;28;20028;-62
2021/07/28 09:08:27;;;;;;;21.35;6.38;;;;;;;19.92;62.51;100821.19;5071189;28;20024;-62
2021/07/28 09:10:55;;;;;;;19.77;6.43;;;;;;;19.99;64.04;100815.56;5073034;28;20036;-61
2021/07/28 09:13:36;;;;;;;19.52;6.18;;;;;;;20.24;64.40;100816.47;5074346;28;20021;-62
2021/07/28 09:16:17;;;;;;;22.27;6.97;;;;;;;20.73;64.55;100817.34;5074620;28;20032;-64
2021/07/28 09:18:45;;;;;;;20.15;6.25;;;;;;;21.18;61.66;100818.31;5071664;28;20460;-62
2021/07/28 09:21:19;;;;;;;21.80;6.25;;;;;;;21.27;60.73;100825.13;5072673;28;20029;-62
2021/07/28 09:23:46;;;;;;;18.25;5.43;;;;;;;21.14;59.69;100819.34;5074028;28;20035;-62
2021/07/28 09:26:36;;;;;;;20.13;5.80;;;;;;;21.33;58.26;100849.06;5072736;28;20029;-62
2021/07/28 09:29:08;;;;;;;20.55;5.57;;;;;;;21.21;58.77;100832.47;5076055;28;20050;-63
2021/07/28 09:31:47;;;;;;;21.02;5.85;;;;;;;21.32;57.59;100829.38;5076703;28;20027;-64
2021/07/28 09:34:22;;;;;;;18.20;5.05;;;;;;;21.28;56.64;100816.13;5075456;28;20067;-64
2021/07/28 09:36:49;;;;;;;19.17;5.22;;;;;;;21.03;56.89;100830.53;5078053;28;20024;-65
2021/07/28 09:39:36;;;;;;;19.67;5.40;;;;;;;21.15;57.80;100827.34;5079224;28;20501;-62
2021/07/28 09:42:16;;;;;;;20.38;5.32;;;;;;;21.12;57.03;100827.47;5074432;28;20047;-65
2021/07/28 09:44:52;;;;;;;17.63;5.00;;;;;;;21.23;56.32;100817.19;5080367;28;20375;-62
2021/07/28 09:47:26;;;;;;;19.42;5.45;;;;;;;21.00;56.86;100830.63;5079846;28;20047;-62
2021/07/28 09:49:57;;;;;;;18.65;4.95;;;;;;;20.67;57.47;100833.72;5075092;28;20028;-63
2021/07/28 09:52:34;;;;;;;19.80;5.53;;;;;;;20.37;58.29;100817.78;5080989;28;20071;-62
2021/07/28 09:55:28;;;;;;;19.80;5.30;;;;;;;20.29;59.22;100834.16;5077222;28;20172;-63
2021/07/28 09:57:58;;;;;;;19.30;5.50;;;;;;;20.84;57.82;100842.00;5078789;28;20041;-65
2021/07/28 10:00:26;;;;;;;20.60;5.70;;;;;;;21.24;57.94;100829.66;5078358;28;20032;-67
2021/07/28 10:02:52;;;;;;;17.25;5.60;;;;;;;22.27;53.93;100854.06;5076836;28;20103;-63
2021/07/28 10:05:21;;;;;;;17.05;5.05;;;;;;;23.11;50.14;100824.22;5080961;28;20075;-63
2021/07/28 10:07:50;;;;;;;19.60;4.90;;;;;;;23.43;48.81;100831.66;5078623;28;20463;-66
2021/07/28 10:10:19;;;;;;;20.02;5.20;;;;;;;22.29;51.16;100827.97;5077331;28;20032;-66
2021/07/28 10:12:46;;;;;;;17.83;4.80;;;;;;;21.77;51.46;100828.41;5078835;28;20032;-66
2021/07/28 10:15:12;;;;;;;21.27;5.00;;;;;;;21.62;54.69;100834.44;5076868;28;20034;-64
2021/07/28 10:17:42;;;;;;;21.23;4.78;;;;;;;22.73;50.92;100836.78;5078908;28;20028;-67
2021/07/28 10:20:09;;;;;;;16.00;4.85;;;;;;;22.45;49.01;100827.28;5075400;28;21634;-66
2021/07/28 10:22:36;;;;;;;17.10;4.50;;;;;;;21.56;51.66;100830.19;5078324;28;20498;-63
2021/07/28 10:25:04;;;;;;;19.25;4.70;;;;;;;22.29;49.90;100824.38;5079035;28;20458;-62
2021/07/28 10:27:38;;;;;;;17.92;4.63;;;;;;;23.54;46.84;100815.81;5080554;28;20386;-62
2021/07/28 10:30:04;;;;;;;16.50;4.65;;;;;;;22.66;48.04;100816.47;5079479;28;20120;-63
2021/07/28 10:32:34;;;;;;;14.68;4.65;;;;;;;22.78;49.38;100814.06;5079583;28;20112;-63
2021/07/28 10:35:22;;;;;;;20.05;5.20;;;;;;;23.13;48.62;100822.31;5070681;28;20048;-67
2021/07/28 10:37:48;;;;;;;18.27;5.00;;;;;;;22.81;48.42;100821.13;5074251;28;20051;-63
2021/07/28 10:40:31;;;;;;;17.15;4.88;;;;;;;22.37;50.21;100829.47;5075538;28;20109;-64
2021/07/28 10:42:57;;;;;;;21.08;5.07;;;;;;;21.96;51.12;100848.28;5071641;28;20028;-63
2021/07/28 10:45:29;;;;;;;16.15;4.53;;;;;;;;;;5075617;28;20032;-64
2021/07/28 10:47:54;;;;;;;18.30;4.70;;;;;;;23.20;47.56;100828.31;5073906;28;20028;-64
2021/07/28 10:50:22;;;;;;;17.27;4.80;;;;;;;23.94;46.29;100827.31;5076636;28;20418;-65
2021/07/28 10:52:54;;;;;;;17.30;4.80;;;;;;;25.00;43.77;100842.38;5073769;28;20032;-63
2021/07/28 10:55:33;;;;;;;18.05;4.65;;;;;;;25.55;42.89;100813.13;5074923;28;20119;-63
2021/07/28 10:58:11;;;;;;;17.13;4.93;;;;;;;25.97;43.19;100811.50;5071543;28;20093;-63
2021/07/28 11:00:37;;;;;;;18.92;5.05;;;;;;;24.65;42.83;100830.81;5072981;28;20058;-63
2021/07/28 11:03:02;;;;;;;18.35;4.90;;;;;;;23.78;46.32;100824.50;5073171;28;20028;-64
2021/07/28 11:05:30;;;;;;;16.33;4.68;;;;;;;23.92;47.48;100815.72;5073116;28;20044;-63
2021/07/28 11:07:58;;;;;;;21.42;5.10;;;;;;;25.28;42.37;100819.16;5074334;28;20031;-64
2021/07/28 11:10:24;;;;;;;20.20;4.53;;;;;;;25.43;41.63;100819.28;5074692;28;20026;-62